Claude, Texas
Current Conditions -  °F | °C
As of 9:53 AM on Sunday 23 Nov 2014 (Local Time) from KAMA Reporting Station
Few Clouds Few Clouds  
Wind Chill: 53°   Ceiling: Unl
Heat Index: 53°   Visibility: 10mi
Dew Point: 28°   Wind: 32mph
Humidity: 38%   Direction: 360°N
Pressure: 29.63"   Gusts: 41mph
Location:  35.11°N, 101.36°W
Report Text: KAMA 231553Z 36028G36KT 10SM FEW110 12/M02 A2963 RMK AO2 PK WND 35039/1539 SLP017 T01171022
Loading
Personal Weather Stations






























Interactive Weather Map New forecast layout! Learn more

10-Day Weather Forecast

Advertisements
Track Severe Weather on mobile